Time;durP1;ratioP1;P1;durP2;ratioP2;P2;SDS_P1;SDS_P2;PMS_P1;PMS_P2;Temp;Humidity;BMP_temperature;BMP_pressure;BME280_temperature;BME280_humidity;BME280_pressure;Samples;Min_cycle;Max_cycle;Signal;HPM_P1;HPM_P2
2023/01/10 00:01:49;;;;;;;65.65;34.10;;;;;;;6.76;79.07;100356.31;4973057;28;20061;-78
2023/01/10 00:04:16;;;;;;;55.25;29.05;;;;;;;7.53;79.09;100488.53;4977617;28;20288;-78
2023/01/10 00:06:43;;;;;;;59.58;30.38;;;;;;;7.32;79.64;100461.97;4994109;28;20662;-78
2023/01/10 00:09:13;;;;;;;62.30;29.33;;;;;;;7.23;79.67;100458.25;4977409;28;20042;-78
2023/01/10 00:14:28;;;;;;;64.63;29.15;;;;;;;7.39;78.79;100494.88;4992157;28;20053;-79
2023/01/10 00:16:56;;;;;;;50.15;28.92;;;;;;;7.40;78.96;100498.34;4977369;28;20435;-78
2023/01/10 00:19:23;;;;;;;50.33;28.55;;;;;;;7.36;78.67;100505.66;4980478;28;20138;-78
2023/01/10 00:21:49;;;;;;;47.15;27.85;;;;;;;7.16;78.69;100478.16;5019717;28;20053;-77
2023/01/10 00:24:19;;;;;;;47.00;28.05;;;;;;;7.02;78.90;100459.91;4977134;28;20104;-77
2023/01/10 00:26:49;;;;;;;48.65;28.73;;;;;;;7.23;79.28;100489.06;4979582;28;20053;-76
2023/01/10 00:29:19;;;;;;;49.15;28.50;;;;;;;7.26;79.31;100483.56;4977425;28;20410;-77
2023/01/10 00:31:48;;;;;;;51.00;28.08;;;;;;;7.33;78.80;100505.06;4976236;28;20631;-77
2023/01/10 00:34:15;;;;;;;47.13;26.60;;;;;;;7.25;79.04;100495.91;4975659;28;20089;-77
2023/01/10 00:36:52;;;;;;;47.90;26.58;;;;;;;7.28;79.09;100508.03;4972516;28;20061;-77
2023/01/10 00:39:28;;;;;;;44.47;26.42;;;;;;;7.04;79.18;100477.28;4973360;28;20387;-77
2023/01/10 00:44:45;;;;;;;56.00;27.45;;;;;;;7.13;79.20;100494.22;4973231;28;20451;-76
2023/01/10 00:47:12;;;;;;;52.58;27.30;;;;;;;7.23;79.16;100511.06;4973148;28;20772;-76
2023/01/10 00:49:41;;;;;;;47.60;26.67;;;;;;;7.28;79.71;100518.59;4951274;28;20568;-78
2023/01/10 00:52:08;;;;;;;52.58;29.13;;;;;;;7.31;79.63;100517.56;4955592;28;20145;-79
2023/01/10 00:54:36;;;;;;;42.92;26.35;;;;;;;7.22;79.27;100514.63;4953886;28;20484;-79
2023/01/10 00:57:03;;;;;;;51.88;27.88;;;;;;;7.17;79.91;100494.84;4956065;28;20520;-77
2023/01/10 00:59:30;;;;;;;44.47;25.10;;;;;;;7.37;79.43;100509.97;4976796;28;20069;-76
2023/01/10 01:01:57;;;;;;;49.47;25.13;;;;;;;7.53;78.92;100501.72;4976088;28;20062;-78
2023/01/10 01:04:24;;;;;;;40.97;23.17;;;;;;;7.59;77.63;100495.94;4978070;28;20057;-79
2023/01/10 01:06:51;;;;;;;30.80;17.60;;;;;;;7.57;74.99;100482.00;4975039;28;20141;-78
2023/01/10 01:09:17;;;;;;;29.70;16.80;;;;;;;7.85;73.22;100533.56;4973769;28;20577;-77
2023/01/10 01:11:44;;;;;;;23.95;15.07;;;;;;;7.84;74.15;100517.81;4975884;28;20137;-78
2023/01/10 01:14:12;;;;;;;33.13;12.43;;;;;;;7.87;68.56;100510.50;4977069;28;20092;-79
2023/01/10 01:16:39;;;;;;;17.58;11.48;;;;;;;7.96;65.29;100510.72;5007501;28;20060;-78
2023/01/10 01:19:06;;;;;;;18.00;11.32;;;;;;;7.89;64.90;100505.94;4974653;28;20053;-78
2023/01/10 01:21:35;;;;;;;20.38;11.60;;;;;;;8.11;63.68;100549.16;4972317;28;20100;-77
2023/01/10 01:24:06;;;;;;;20.55;11.75;;;;;;;8.08;65.37;100554.69;4975862;28;20108;-77
2023/01/10 01:26:34;;;;;;;19.60;10.63;;;;;;;8.01;64.95;100549.06;4970055;28;20629;-77
2023/01/10 01:29:00;;;;;;;16.08;10.10;;;;;;;8.08;64.41;100559.97;4992124;28;20335;-77
2023/01/10 01:31:27;;;;;;;17.67;10.35;;;;;;;8.05;63.75;100560.22;4973215;28;20056;-78
2023/01/10 01:33:54;;;;;;;17.50;11.25;;;;;;;8.07;63.00;100564.41;4975458;28;20052;-77
2023/01/10 01:36:21;;;;;;;15.07;10.25;;;;;;;8.06;63.10;100553.97;4966843;28;20046;-78
2023/01/10 01:38:48;;;;;;;16.55;9.90;;;;;;;8.06;61.40;100560.09;4955180;28;20268;-78
2023/01/10 01:44:15;;;;;;;16.75;10.48;;;;;;;8.19;60.84;100552.03;4972601;28;20050;-79
2023/01/10 01:46:47;;;;;;;13.98;9.27;;;;;;;7.64;60.74;100461.25;4968038;28;20057;-77
2023/01/10 01:49:20;;;;;;;16.52;10.63;;;;;;;8.16;60.34;100565.50;4971907;28;20073;-78
2023/01/10 01:51:53;;;;;;;19.85;9.20;;;;;;;8.26;59.76;100586.78;4952150;28;20055;-78
2023/01/10 01:54:20;;;;;;;14.60;9.38;;;;;;;8.25;61.46;100578.00;4973529;28;20240;-78
2023/01/10 01:56:56;;;;;;;13.93;9.50;;;;;;;8.22;60.27;100583.50;4961621;28;20050;-78
2023/01/10 01:59:33;;;;;;;15.75;9.15;;;;;;;7.34;60.47;100465.31;4980383;28;20121;-78
2023/01/10 02:02:23;;;;;;;16.92;9.02;;;;;;;7.77;59.64;100540.38;4979730;28;20066;-77
2023/01/10 02:05:02;;;;;;;20.52;9.57;;;;;;;6.88;60.50;100408.16;5002896;28;20515;-79
2023/01/10 02:07:33;;;;;;;13.52;9.07;;;;;;;7.98;61.07;100591.56;4988621;28;20283;-79
2023/01/10 02:10:11;;;;;;;16.13;8.68;;;;;;;7.88;61.44;100580.88;4986633;28;20064;-78
2023/01/10 02:12:46;;;;;;;12.35;7.80;;;;;;;7.78;60.96;100553.50;4982455;28;20198;-78
2023/01/10 02:15:15;;;;;;;15.60;8.30;;;;;;;7.74;60.36;100561.78;4982026;28;20112;-77
2023/01/10 02:17:50;;;;;;;13.98;8.07;;;;;;;7.93;59.84;100591.94;4979514;28;20053;-77
2023/01/10 02:20:19;;;;;;;20.38;9.23;;;;;;;7.74;58.80;100551.19;4978184;28;20141;-78
2023/01/10 02:23:13;;;;;;;15.57;8.05;;;;;;;7.76;59.66;100581.84;4998398;28;20113;-77
2023/01/10 02:25:55;;;;;;;11.07;7.65;;;;;;;7.83;60.09;100603.34;4978750;28;20049;-77
2023/01/10 02:28:54;;;;;;;12.95;8.57;;;;;;;7.34;60.16;100530.53;4977825;28;20058;-78
2023/01/10 02:32:17;;;;;;;11.20;7.75;;;;;;;7.74;59.18;100589.03;4978496;28;20050;-78
2023/01/10 02:35:42;;;;;;;11.32;7.00;;;;;;;7.73;59.15;100602.38;4933588;29;20413;-77
2023/01/10 02:38:27;;;;;;;9.60;6.22;;;;;;;7.70;59.52;100606.94;4917261;29;20316;-78
2023/01/10 02:41:05;;;;;;;10.88;6.40;;;;;;;7.63;59.20;100596.97;4971666;28;20503;-78
2023/01/10 02:43:44;;;;;;;9.57;6.13;;;;;;;7.65;59.66;100601.16;4978174;28;20488;-78
2023/01/10 02:46:23;;;;;;;9.57;6.18;;;;;;;7.68;58.67;100611.50;4962918;28;20299;-78
2023/01/10 02:48:53;;;;;;;9.70;5.95;;;;;;;7.65;58.94;100605.63;4979761;28;20502;-77
2023/01/10 02:51:26;;;;;;;9.98;4.68;;;;;;;7.70;56.98;100598.19;4964786;28;20479;-78
2023/01/10 02:54:00;;;;;;;11.68;5.40;;;;;;;7.83;56.60;100612.13;4959623;28;20492;-78
2023/01/10 02:56:45;;;;;;;7.38;4.93;;;;;;;7.66;56.93;100575.59;4962626;28;20050;-78
2023/01/10 02:59:30;;;;;;;6.75;4.85;;;;;;;8.11;56.67;100623.22;4996909;28;20416;-77
2023/01/10 03:02:07;;;;;;;8.68;4.95;;;;;;;7.96;55.16;100608.53;4997128;28;20500;-77
2023/01/10 03:04:52;;;;;;;10.15;4.95;;;;;;;8.09;54.40;100636.53;4981270;28;20159;-77
2023/01/10 03:07:38;;;;;;;7.45;5.10;;;;;;;8.10;52.70;100642.66;4977077;28;20183;-78
2023/01/10 03:10:18;;;;;;;7.78;4.95;;;;;;;8.12;52.33;100644.22;4976757;28;20048;-78
2023/01/10 03:12:58;;;;;;;8.48;5.22;;;;;;;8.10;53.28;100653.25;4979541;28;20526;-77
2023/01/10 03:15:31;;;;;;;7.38;4.68;;;;;;;7.85;52.82;100607.56;4980973;28;20069;-77
2023/01/10 03:18:01;;;;;;;7.30;4.63;;;;;;;7.88;53.43;100611.75;4979465;28;20066;-78
2023/01/10 03:20:32;;;;;;;5.88;3.88;;;;;;;8.11;53.00;100649.66;4975491;28;20104;-78
2023/01/10 03:23:01;;;;;;;8.75;4.35;;;;;;;8.14;52.15;100654.69;4992808;28;20057;-78
2023/01/10 03:25:35;;;;;;;8.07;3.58;;;;;;;7.85;52.22;100612.84;4975819;28;20058;-79
2023/01/10 03:28:10;;;;;;;11.88;4.95;;;;;;;8.04;52.17;100659.03;4995521;28;20427;-78
2023/01/10 03:30:53;;;;;;;9.88;4.68;;;;;;;7.95;52.99;100654.44;4978591;28;20061;-79
2023/01/10 03:33:29;;;;;;;5.45;4.18;;;;;;;7.87;53.16;100645.28;4976337;28;20050;-77
2023/01/10 03:36:25;;;;;;;6.07;4.32;;;;;;;7.97;52.69;100673.66;4975545;28;20049;-79
2023/01/10 03:39:37;;;;;;;5.78;3.58;;;;;;;7.29;52.10;100562.56;4978307;28;20182;-78
2023/01/10 03:42:13;;;;;;;6.68;4.45;;;;;;;7.80;52.61;100652.00;4975725;28;20452;-77
2023/01/10 03:44:52;;;;;;;10.20;4.38;;;;;;;7.34;52.79;100578.06;4977929;28;20112;-78
2023/01/10 03:47:40;;;;;;;7.57;4.05;;;;;;;7.91;52.77;100675.81;4976022;28;20046;-78
2023/01/10 03:50:15;;;;;;;8.43;3.88;;;;;;;7.74;52.44;100641.06;4974573;28;20447;-78
2023/01/10 03:52:46;;;;;;;8.75;3.80;;;;;;;7.90;50.72;100652.97;4995844;28;20077;-77
2023/01/10 03:55:19;;;;;;;5.28;3.67;;;;;;;7.03;51.92;100540.75;4978888;28;20450;-76
2023/01/10 03:57:46;;;;;;;7.83;4.07;;;;;;;7.88;52.10;100685.78;4974642;28;20046;-75
2023/01/10 04:00:14;;;;;;;7.07;4.07;;;;;;;7.66;51.27;100650.41;4977763;28;20381;-77
2023/01/10 04:02:41;;;;;;;6.03;4.38;;;;;;;7.64;51.66;100659.41;4971710;28;20097;-78
2023/01/10 04:05:16;;;;;;;7.18;3.78;;;;;;;7.82;51.31;100691.53;4971821;28;20789;-77
2023/01/10 04:07:52;;;;;;;5.93;4.05;;;;;;;7.49;51.99;100653.47;4973679;28;20129;-78
2023/01/10 04:10:19;;;;;;;6.40;3.75;;;;;;;7.83;51.54;100704.63;5000964;28;20433;-78
2023/01/10 04:12:46;;;;;;;5.72;3.13;;;;;;;7.86;51.01;100720.28;4955551;28;20385;-77
2023/01/10 04:15:16;;;;;;;7.75;3.63;;;;;;;7.84;51.37;100711.59;4961012;28;20101;-77
2023/01/10 04:17:42;;;;;;;4.68;2.65;;;;;;;7.69;51.30;100687.19;4958147;28;20279;-77
2023/01/10 04:20:10;;;;;;;4.30;2.85;;;;;;;7.69;50.83;100696.88;4955498;28;20055;-78
2023/01/10 04:22:37;;;;;;;5.72;3.42;;;;;;;7.86;50.30;100716.75;4950045;28;20637;-78
2023/01/10 04:25:07;;;;;;;5.70;2.92;;;;;;;7.92;49.94;100717.16;4958356;28;20237;-78
2023/01/10 04:27:38;;;;;;;4.30;3.03;;;;;;;7.90;49.89;100705.84;4951289;28;20432;-79
2023/01/10 04:30:22;;;;;;;3.97;2.60;;;;;;;8.02;49.13;100724.38;4953313;28;20444;-78
2023/01/10 04:32:48;;;;;;;2.83;2.15;;;;;;;7.92;49.26;100711.84;4950721;28;20081;-77
2023/01/10 04:35:15;;;;;;;2.28;2.08;;;;;;;7.98;49.21;100717.63;4955346;28;20405;-79
2023/01/10 04:37:49;;;;;;;6.93;2.67;;;;;;;7.97;48.81;100716.81;4966582;28;20051;-77
2023/01/10 04:40:22;;;;;;;2.67;2.20;;;;;;;7.90;48.36;100712.94;4971669;28;20059;-77
2023/01/10 04:42:50;;;;;;;4.40;3.08;;;;;;;7.21;49.08;100608.03;4955729;28;20050;-78
2023/01/10 04:45:20;;;;;;;2.50;2.10;;;;;;;8.07;49.75;100743.38;4953756;28;20149;-77
2023/01/10 04:47:50;;;;;;;5.38;2.10;;;;;;;8.12;49.26;100749.16;4969191;28;20568;-79
2023/01/10 04:50:17;;;;;;;3.05;1.95;;;;;;;8.16;48.30;100747.97;4971270;28;20121;-78
2023/01/10 04:52:44;;;;;;;3.60;1.88;;;;;;;8.28;47.85;100751.50;4952866;28;20081;-77
2023/01/10 04:55:11;;;;;;;4.45;2.00;;;;;;;8.37;48.69;100757.84;4969188;28;20043;-78
2023/01/10 04:57:38;;;;;;;2.50;1.60;;;;;;;8.42;46.49;100763.66;4958947;28;20046;-78
2023/01/10 05:00:05;;;;;;;5.88;2.20;;;;;;;8.39;48.41;100766.53;4972558;28;20536;-77
2023/01/10 05:02:32;;;;;;;8.35;2.17;;;;;;;8.38;47.27;100762.19;4975220;28;20046;-78
2023/01/10 05:04:59;;;;;;;3.13;2.15;;;;;;;8.48;47.52;100787.00;4972014;28;20058;-78
2023/01/10 05:07:26;;;;;;;4.47;2.15;;;;;;;8.28;47.70;100765.53;4974875;28;20042;-78
2023/01/10 05:09:52;;;;;;;6.18;3.03;;;;;;;8.44;47.50;100798.78;4971058;28;20448;-77
2023/01/10 05:12:25;;;;;;;3.67;1.90;;;;;;;8.42;47.17;100790.94;4971713;28;20161;-79
2023/01/10 05:14:52;;;;;;;6.40;2.97;;;;;;;8.31;47.75;100789.09;4974659;28;20065;-78
2023/01/10 05:17:19;;;;;;;3.75;2.45;;;;;;;8.41;46.42;100799.88;4974482;28;20480;-78
2023/01/10 05:19:45;;;;;;;6.00;2.90;;;;;;;8.40;47.12;100798.19;4972396;28;20363;-78
2023/01/10 05:22:13;;;;;;;5.85;2.72;;;;;;;7.69;47.02;100687.19;4970831;28;20050;-78
2023/01/10 05:24:41;;;;;;;8.73;2.85;;;;;;;8.41;47.47;100814.91;4970253;28;20047;-79
2023/01/10 05:27:08;;;;;;;6.00;3.33;;;;;;;8.48;47.47;100816.94;4972864;28;20077;-78
2023/01/10 05:29:35;;;;;;;7.10;2.90;;;;;;;8.42;47.43;100821.88;4972256;28;20233;-78
2023/01/10 05:32:02;;;;;;;8.13;2.90;;;;;;;8.49;47.06;100839.78;4998046;28;20043;-78
2023/01/10 05:34:28;;;;;;;8.63;2.97;;;;;;;8.43;48.12;100826.22;4974366;28;20060;-77
2023/01/10 05:36:55;;;;;;;9.95;3.25;;;;;;;8.12;47.74;100792.31;4971131;28;20062;-78
2023/01/10 05:39:22;;;;;;;4.00;2.67;;;;;;;8.40;48.76;100855.53;4972379;28;20046;-78
2023/01/10 05:41:55;;;;;;;3.55;3.05;;;;;;;8.23;46.81;100823.25;4968885;28;20468;-77
2023/01/10 05:44:22;;;;;;;3.72;2.80;;;;;;;8.32;47.56;100848.16;4955277;28;20466;-77
2023/01/10 05:46:51;;;;;;;5.45;2.80;;;;;;;8.22;47.66;100831.28;4968295;28;20121;-78
2023/01/10 05:49:18;;;;;;;4.18;2.78;;;;;;;7.98;47.16;100812.81;4971546;28;20106;-78
2023/01/10 05:51:45;;;;;;;5.82;2.70;;;;;;;8.37;47.17;100871.59;4978087;28;20567;-77
2023/01/10 05:54:12;;;;;;;7.05;2.78;;;;;;;8.39;47.13;100881.13;4973109;28;20472;-78
2023/01/10 05:56:38;;;;;;;8.20;4.25;;;;;;;8.44;46.81;100889.56;4978287;28;20058;-77
2023/01/10 05:59:05;;;;;;;12.80;4.97;;;;;;;8.26;47.35;100886.50;4976949;28;20054;-77
2023/01/10 06:01:52;;;;;;;11.20;7.57;;;;;;;8.12;47.42;100852.28;4977899;28;20268;-77
2023/01/10 06:04:19;;;;;;;13.77;9.73;;;;;;;8.21;46.72;100871.94;4977336;28;20057;-77
2023/01/10 06:06:46;;;;;;;16.83;10.40;;;;;;;8.40;46.96;100914.59;4975826;28;20480;-78
2023/01/10 06:09:16;;;;;;;12.82;10.23;;;;;;;8.31;47.18;100907.31;4992603;28;20136;-77
2023/01/10 06:11:48;;;;;;;13.10;8.43;;;;;;;8.30;47.19;100914.41;4980350;28;20593;-75
2023/01/10 06:14:18;;;;;;;13.15;7.57;;;;;;;8.12;46.92;100879.56;4975806;28;20076;-76
2023/01/10 06:16:46;;;;;;;9.32;5.93;;;;;;;8.21;47.42;100898.38;4977821;28;20046;-77
2023/01/10 06:19:17;;;;;;;9.00;5.90;;;;;;;8.27;48.99;100909.31;4980685;28;20038;-77
2023/01/10 06:21:43;;;;;;;8.00;5.00;;;;;;;8.34;47.96;100930.88;4979764;28;20054;-78
2023/01/10 06:24:10;;;;;;;6.88;4.80;;;;;;;8.35;47.44;100946.66;4981227;28;20057;-76
2023/01/10 06:26:37;;;;;;;8.43;4.43;;;;;;;8.32;47.83;100940.72;4980584;28;20518;-77
2023/01/10 06:29:06;;;;;;;10.38;4.20;;;;;;;8.02;47.89;100910.28;4979426;28;20058;-76
2023/01/10 06:31:36;;;;;;;7.55;3.90;;;;;;;8.39;46.25;100943.75;4979367;28;20224;-77
2023/01/10 06:34:06;;;;;;;8.05;4.18;;;;;;;8.03;48.05;100937.56;4993082;28;20080;-77
2023/01/10 06:36:35;;;;;;;18.35;4.13;;;;;;;8.12;47.29;100942.19;4981624;28;20803;-77
2023/01/10 06:39:01;;;;;;;8.65;4.28;;;;;;;8.18;47.42;100952.34;4966483;28;20526;-77
2023/01/10 06:41:28;;;;;;;11.40;4.18;;;;;;;8.23;47.70;100986.34;4976017;28;20483;-77
2023/01/10 06:43:55;;;;;;;10.48;3.97;;;;;;;8.21;47.02;100983.84;4997631;28;20515;-77
2023/01/10 06:46:23;;;;;;;6.95;4.07;;;;;;;8.19;47.65;100991.03;4999011;28;20056;-77
2023/01/10 06:48:55;;;;;;;6.65;4.07;;;;;;;8.14;47.10;100994.03;5001434;28;20045;-77
2023/01/10 06:51:22;;;;;;;7.15;3.35;;;;;;;8.15;48.30;101010.72;5003523;28;20523;-76
2023/01/10 06:53:48;;;;;;;6.22;3.45;;;;;;;8.18;47.86;101012.31;4979227;28;20463;-76
2023/01/10 06:56:17;;;;;;;5.93;4.45;;;;;;;7.57;47.34;100919.75;4993023;28;20058;-77
2023/01/10 06:58:47;;;;;;;5.78;3.95;;;;;;;8.10;47.60;101026.09;4985946;28;20233;-76
2023/01/10 07:01:19;;;;;;;6.20;4.00;;;;;;;8.10;48.08;101024.28;4979670;28;20146;-77
2023/01/10 07:03:47;;;;;;;8.77;4.38;;;;;;;7.99;47.97;101010.16;4986963;28;20059;-78
2023/01/10 07:06:14;;;;;;;7.35;4.40;;;;;;;8.02;47.37;101028.44;5000076;28;20057;-78
2023/01/10 07:08:58;;;;;;;12.30;4.45;;;;;;;8.00;47.83;101039.13;5003073;28;20056;-77
2023/01/10 07:11:42;;;;;;;8.23;4.78;;;;;;;7.54;48.32;100946.38;4983536;28;20129;-77
2023/01/10 07:14:30;;;;;;;9.75;4.80;;;;;;;7.88;48.09;101014.38;4980115;28;20554;-76
2023/01/10 07:16:57;;;;;;;10.00;5.00;;;;;;;7.74;47.57;100998.66;4979460;28;20056;-77
2023/01/10 07:19:26;;;;;;;8.98;4.85;;;;;;;7.95;48.36;101043.06;4979848;28;20061;-77
2023/01/10 07:21:55;;;;;;;13.25;5.20;;;;;;;8.06;48.87;101059.84;4980441;28;20140;-78
2023/01/10 07:24:22;;;;;;;12.85;5.38;;;;;;;8.06;47.47;101074.88;4980335;28;20053;-77
2023/01/10 07:26:55;;;;;;;10.65;5.03;;;;;;;8.07;48.26;101077.38;4981782;28;20052;-78
2023/01/10 07:29:24;;;;;;;12.07;5.68;;;;;;;7.99;47.88;101069.16;4996630;28;20305;-77
2023/01/10 07:31:51;;;;;;;8.63;5.28;;;;;;;7.99;47.83;101082.38;4984063;28;20074;-77
2023/01/10 07:34:18;;;;;;;10.98;5.68;;;;;;;8.04;48.08;101097.94;5000994;28;20843;-78
2023/01/10 07:36:45;;;;;;;12.45;5.82;;;;;;;7.72;48.17;101045.53;4996687;28;20076;-77
2023/01/10 07:39:12;;;;;;;9.50;5.13;;;;;;;7.92;48.47;101084.59;4981677;28;20046;-78
2023/01/10 07:41:39;;;;;;;13.65;5.40;;;;;;;8.00;48.07;101099.09;4998780;28;20108;-76
2023/01/10 07:44:06;;;;;;;9.93;3.97;;;;;;;7.97;47.71;101097.50;4981257;28;20609;-78
2023/01/10 07:46:32;;;;;;;12.73;4.72;;;;;;;7.95;48.14;101098.56;5000566;28;20664;-77
2023/01/10 07:48:59;;;;;;;8.70;4.30;;;;;;;8.03;47.64;101090.94;5001118;28;20046;-77
2023/01/10 07:51:27;;;;;;;10.98;4.20;;;;;;;8.12;47.59;101117.56;4986396;28;20054;-78
2023/01/10 07:53:54;;;;;;;10.13;4.55;;;;;;;8.14;47.74;101123.59;4978073;28;20496;-77
2023/01/10 07:56:21;;;;;;;11.20;4.38;;;;;;;7.70;47.42;101042.97;4981754;28;20125;-77
2023/01/10 07:58:50;;;;;;;10.32;4.57;;;;;;;8.18;47.94;101111.03;4984869;28;20162;-77
2023/01/10 08:01:17;;;;;;;7.63;4.53;;;;;;;8.07;47.79;101093.25;4985145;28;20041;-76
2023/01/10 08:03:44;;;;;;;10.43;4.47;;;;;;;8.10;46.85;101078.97;4981995;28;20487;-77
2023/01/10 08:06:11;;;;;;;8.82;4.15;;;;;;;8.31;47.99;101133.00;4996476;28;20136;-76
2023/01/10 08:08:42;;;;;;;12.63;4.60;;;;;;;8.09;47.89;101096.66;4981695;28;20050;-76
2023/01/10 08:11:11;;;;;;;9.25;4.38;;;;;;;8.19;47.88;101101.28;4992049;28;20144;-78
2023/01/10 08:13:37;;;;;;;7.60;4.03;;;;;;;8.45;47.25;101142.63;4995871;28;20404;-77
2023/01/10 08:16:07;;;;;;;6.30;3.90;;;;;;;7.61;46.96;101009.25;4978999;28;20510;-77
2023/01/10 08:18:35;;;;;;;3.90;3.28;;;;;;;8.61;45.57;101155.59;4988569;28;20080;-77
2023/01/10 08:21:01;;;;;;;8.93;3.58;;;;;;;8.71;46.12;101148.72;4980995;28;20120;-77
2023/01/10 08:23:29;;;;;;;17.33;4.07;;;;;;;8.74;45.54;101150.28;4982401;28;20042;-77
2023/01/10 08:25:58;;;;;;;5.22;3.40;;;;;;;8.67;45.56;101139.28;4980210;28;20133;-77
2023/01/10 08:28:24;;;;;;;7.35;3.92;;;;;;;8.87;47.34;101166.13;4983983;28;20050;-78
2023/01/10 08:30:58;;;;;;;9.60;3.45;;;;;;;9.02;45.09;101169.44;4980942;28;20674;-77
2023/01/10 08:33:26;;;;;;;7.00;2.65;;;;;;;8.88;44.49;101139.50;4981099;28;20121;-78
2023/01/10 08:35:58;;;;;;;5.07;2.60;;;;;;;8.83;44.49;101119.63;5009002;28;20049;-75
2023/01/10 08:38:25;;;;;;;5.70;3.15;;;;;;;9.27;45.81;101202.91;4980255;28;20528;-80
2023/01/10 08:40:57;;;;;;;4.28;2.20;;;;;;;9.34;44.18;101196.19;4975679;28;20052;-79
2023/01/10 08:43:23;;;;;;;5.30;2.50;;;;;;;9.36;44.85;101204.88;4993711;28;20210;-80
2023/01/10 08:45:52;;;;;;;6.18;2.55;;;;;;;9.47;44.54;101204.94;4992325;28;20133;-77
2023/01/10 08:48:24;;;;;;;6.45;2.05;;;;;;;9.36;44.68;101189.84;4995126;28;20137;-80
2023/01/10 08:50:53;;;;;;;4.22;2.58;;;;;;;9.08;47.28;101132.78;4993988;28;20348;-80
2023/01/10 08:53:23;;;;;;;6.63;2.40;;;;;;;9.58;44.99;101201.47;4974833;28;20330;-79
2023/01/10 08:55:50;;;;;;;7.82;2.97;;;;;;;9.23;44.00;101136.06;4973394;28;20041;-80
2023/01/10 08:58:16;;;;;;;3.45;2.30;;;;;;;9.46;43.66;101195.28;4975831;28;20953;-79
2023/01/10 09:00:44;;;;;;;5.35;2.58;;;;;;;9.44;43.75;101197.19;4973581;28;20054;-80
2023/01/10 09:03:10;;;;;;;10.93;3.03;;;;;;;9.51;43.74;101214.34;4990424;28;20060;-78
2023/01/10 09:05:37;;;;;;;2.90;1.85;;;;;;;9.32;44.59;101191.03;4984110;28;20046;-81
2023/01/10 09:08:04;;;;;;;3.78;2.05;;;;;;;9.37;43.29;101202.13;4986675;28;20050;-78
2023/01/10 09:10:31;;;;;;;5.25;2.35;;;;;;;9.48;45.16;101203.13;4977799;28;20705;-78
2023/01/10 09:13:05;;;;;;;5.70;2.40;;;;;;;9.66;43.97;101248.63;4977635;28;20207;-78
2023/01/10 09:15:35;;;;;;;3.55;1.77;;;;;;;9.56;43.65;101206.91;4979286;28;20038;-79
2023/01/10 09:18:04;;;;;;;3.25;2.08;;;;;;;9.84;43.06;101258.69;4980134;28;20099;-78
2023/01/10 09:20:39;;;;;;;6.90;2.25;;;;;;;9.74;43.55;101240.94;4994949;28;20058;-79
2023/01/10 09:23:11;;;;;;;4.32;2.22;;;;;;;9.03;43.30;101124.31;4975584;28;20061;-78
2023/01/10 09:25:37;;;;;;;3.60;1.98;;;;;;;9.88;43.62;101275.25;4991391;28;20144;-78
2023/01/10 09:28:11;;;;;;;5.45;2.85;;;;;;;9.84;44.01;101284.38;4976367;28;20511;-77
2023/01/10 09:30:40;;;;;;;7.75;2.17;;;;;;;9.91;43.53;101292.72;4988646;28;20045;-78
2023/01/10 09:33:09;;;;;;;6.43;2.67;;;;;;;9.60;43.32;101228.72;4978347;28;20120;-76
2023/01/10 09:35:38;;;;;;;8.77;3.20;;;;;;;9.82;43.53;101273.03;4975420;28;20050;-77
2023/01/10 09:38:15;;;;;;;6.88;2.88;;;;;;;10.04;43.46;101299.63;4976213;28;20088;-77
2023/01/10 09:41:19;;;;;;;5.90;3.08;;;;;;;10.11;44.83;101302.66;4970055;28;20139;-78
2023/01/10 09:44:12;;;;;;;4.72;2.67;;;;;;;10.19;43.45;101304.72;4980966;28;20041;-78
2023/01/10 09:46:50;;;;;;;8.23;2.90;;;;;;;10.29;42.59;101316.34;4982702;28;20244;-76
2023/01/10 09:49:37;;;;;;;7.78;3.03;;;;;;;10.16;43.37;101291.69;4979560;28;20060;-78
2023/01/10 09:52:41;;;;;;;8.75;2.83;;;;;;;10.25;43.59;101305.13;4978183;28;20052;-77
2023/01/10 09:55:30;;;;;;;6.47;2.97;;;;;;;10.01;43.80;101232.72;4992306;28;20049;-77
2023/01/10 09:58:14;;;;;;;6.68;2.38;;;;;;;10.53;43.30;101313.63;4994455;28;20645;-79
2023/01/10 10:00:55;;;;;;;3.13;1.92;;;;;;;10.31;41.95;101261.34;4974412;28;20152;-78
2023/01/10 10:03:37;;;;;;;7.28;2.33;;;;;;;10.80;40.95;101321.28;4974047;28;20503;-78
2023/01/10 10:06:11;;;;;;;;;;;;;;;10.83;42.47;101336.13;4997139;28;20080;-78
2023/01/10 10:08:44;;;;;;;1.77;1.63;;;;;;;9.37;40.99;101100.59;4975867;28;19928;-79
2023/01/10 10:11:29;;;;;;;4.15;2.20;;;;;;;10.10;41.57;101220.53;4977902;28;20292;-79
2023/01/10 10:13:55;;;;;;;6.95;2.08;;;;;;;10.81;42.03;101335.41;4977721;28;20502;-79
2023/01/10 10:16:25;;;;;;;6.20;2.20;;;;;;;10.88;41.32;101353.38;4981069;28;20286;-79
2023/01/10 10:19:14;;;;;;;5.05;2.17;;;;;;;11.00;41.13;101342.78;4999926;28;20395;-79
2023/01/10 10:21:45;;;;;;;8.35;2.00;;;;;;;10.88;40.94;101315.38;4980252;28;20562;-78
2023/01/10 10:24:24;;;;;;;5.20;2.10;;;;;;;11.04;40.92;101350.34;4995546;28;20137;-79
2023/01/10 10:26:58;;;;;;;4.25;1.77;;;;;;;10.87;42.35;101317.19;4998363;28;20266;-79
2023/01/10 10:29:43;;;;;;;7.70;1.80;;;;;;;11.02;41.26;101340.81;4979849;28;20649;-78
2023/01/10 10:32:28;;;;;;;5.15;2.15;;;;;;;11.18;41.85;101357.25;4980574;28;20260;-78
2023/01/10 10:35:00;;;;;;;6.00;2.28;;;;;;;11.27;41.31;101353.03;4986276;28;20096;-79
2023/01/10 10:37:35;;;;;;;7.63;1.98;;;;;;;11.14;41.54;101339.88;4972255;28;20046;-79
2023/01/10 10:40:24;;;;;;;3.38;1.77;;;;;;;11.30;41.76;101350.94;4991558;28;20046;-79
2023/01/10 10:42:53;;;;;;;5.57;2.10;;;;;;;11.43;40.30;101348.16;4972335;28;20046;-78
2023/01/10 10:45:38;;;;;;;11.40;2.08;;;;;;;10.97;40.17;101289.84;4992830;28;20116;-79
2023/01/10 10:48:54;;;;;;;3.85;1.70;;;;;;;11.09;39.97;101316.31;4982189;28;20193;-79
2023/01/10 10:51:33;;;;;;;3.63;1.90;;;;;;;11.22;40.47;101320.66;4936835;28;20627;-79
2023/01/10 10:54:00;;;;;;;6.80;1.45;;;;;;;11.56;39.96;101363.97;4918779;28;20362;-79
2023/01/10 10:56:27;;;;;;;8.90;1.83;;;;;;;11.45;39.71;101350.69;4955072;28;20241;-79
2023/01/10 10:58:57;;;;;;;8.50;2.03;;;;;;;11.44;40.81;101341.03;4982445;28;20467;-79
2023/01/10 11:01:27;;;;;;;3.88;2.15;;;;;;;11.70;40.07;101377.00;4981232;28;20070;-79
2023/01/10 11:04:09;;;;;;;1.98;1.50;;;;;;;11.72;39.76;101369.75;4980144;28;20049;-78
2023/01/10 11:06:48;;;;;;;3.38;1.52;;;;;;;11.53;40.39;101313.69;4981112;28;20038;-78
2023/01/10 11:09:56;;;;;;;2.55;1.63;;;;;;;11.96;39.56;101352.75;4980717;28;20544;-80
2023/01/10 11:12:24;;;;;;;3.78;1.63;;;;;;;12.19;38.54;101362.31;4978196;28;20255;-79
2023/01/10 11:14:51;;;;;;;5.32;1.88;;;;;;;12.27;38.73;101372.31;4978741;28;20073;-79
2023/01/10 11:17:21;;;;;;;6.85;1.58;;;;;;;12.33;38.56;101371.81;4981121;28;20485;-78
2023/01/10 11:20:15;;;;;;;4.35;1.52;;;;;;;12.37;38.44;101375.06;4979911;28;20043;-78
2023/01/10 11:22:52;;;;;;;2.35;1.50;;;;;;;11.80;38.65;101280.47;4979547;28;20049;-78
2023/01/10 11:25:21;;;;;;;2.70;1.33;;;;;;;12.16;38.34;101357.25;4979442;28;20660;-77
2023/01/10 11:27:52;;;;;;;1.88;1.38;;;;;;;12.25;38.06;101365.44;4980408;28;20042;-79
2023/01/10 11:30:23;;;;;;;1.88;1.42;;;;;;;12.21;39.64;101377.31;4977584;28;20053;-77
2023/01/10 11:33:07;;;;;;;2.25;1.42;;;;;;;12.27;39.16;101380.31;4978984;28;20117;-78
2023/01/10 11:35:37;;;;;;;3.97;1.63;;;;;;;10.89;39.14;101155.84;4996658;28;20041;-77
2023/01/10 11:38:15;;;;;;;3.30;1.45;;;;;;;12.34;39.26;101384.16;4990991;28;20132;-79
2023/01/10 11:40:53;;;;;;;1.95;1.30;;;;;;;12.08;37.92;101335.75;4995516;28;20361;-79
2023/01/10 11:43:26;;;;;;;1.67;1.40;;;;;;;12.18;38.81;101358.00;4980113;28;20143;-79
2023/01/10 11:46:01;;;;;;;;;;;;;;;12.29;38.16;101378.38;4987111;28;20049;-77
2023/01/10 11:48:51;;;;;;;4.80;1.58;;;;;;;12.32;38.50;101374.59;4995865;28;20031;-79
2023/01/10 11:51:47;;;;;;;4.00;1.42;;;;;;;11.93;38.64;101299.78;5016375;28;21327;-78
2023/01/10 11:54:22;;;;;;;2.33;1.20;;;;;;;12.44;37.61;101365.59;4982653;28;20495;-79
2023/01/10 11:57:03;;;;;;;5.10;1.17;;;;;;;12.47;37.48;101375.97;4997523;28;20129;-77
2023/01/10 11:59:29;;;;;;;1.98;1.17;;;;;;;12.46;36.81;101365.47;4994418;28;20100;-77
2023/01/10 12:02:09;;;;;;;2.53;1.42;;;;;;;12.45;36.47;101375.28;4965066;28;20058;-77
2023/01/10 12:04:46;;;;;;;1.65;1.02;;;;;;;12.32;37.07;101363.97;4983587;28;20034;-80